Погода Тистла-де-Геррерона неделю

Герреро, Мексика

03 - 09 декабря
  • 03декабря
    Сегодня
    +14°
    +31°
    Практически безоблачно
    ВремяПогодаТемператураВлажностьДавлениеВетер, м/сВероятность осадков
    00:00Ясно и безоблачно+19°C87 %653 мм0.4 м/с2 %
    03:00Ясно и безоблачно+17°C83 %652 мм1.4 м/с2 %
    06:00Ясно и безоблачно+16°C82 %652 мм1.4 м/с2 %
    09:00Ясно и безоблачно+20°C62 %654 мм1.6 м/с2 %
    12:00Ясно и безоблачно+29°C47 %656 мм2.4 м/с2 %
    15:00Практически безоблачно+30°C41 %654 мм3.2 м/с26 %
    18:00Ясно и безоблачно+26°C60 %653 мм1.5 м/с15 %
    21:00Ясно и безоблачно+23°C60 %654 мм1.7 м/с2 %
  • 04декабря
    Воскресенье
    +13°
    +30°
    Ясно и безоблачно
    ВремяПогодаТемператураВлажностьДавлениеВетер, м/сВероятность осадков
    00:00Ясно и безоблачно+21°C67 %654 мм0.5 м/с2 %
    03:00Ясно и безоблачно+17°C82 %653 мм1.3 м/с2 %
    06:00Ясно и безоблачно+16°C79 %653 мм1.9 м/с2 %
    09:00Ясно и безоблачно+19°C56 %655 мм2.7 м/с2 %
    12:00Ясно и безоблачно+27°C38 %656 мм2.4 м/с2 %
    15:00Ясно и безоблачно+29°C33 %654 мм1.7 м/с2 %
    18:00Ясно и безоблачно+24°C57 %652 мм1.3 м/с2 %
    21:00Ясно и безоблачно+21°C62 %652 мм0.7 м/с2 %
  • 05декабря
    Понедельник
    +13°
    +31°
    Ясно и безоблачно
    ВремяПогодаТемператураВлажностьДавлениеВетер, м/сВероятность осадков
    00:00Ясно и безоблачно+17°C72 %650 мм0.8 м/с2 %
    03:00Ясно и безоблачно+15°C76 %649 мм0.9 м/с2 %
    06:00Ясно и безоблачно+14°C80 %650 мм1.2 м/с2 %
    09:00Ясно и безоблачно+18°C60 %652 мм1.9 м/с2 %
    12:00Ясно и безоблачно+28°C39 %654 мм1.7 м/с2 %
    15:00Ясно и безоблачно+30°C33 %652 мм0.8 м/с2 %
    18:00Ясно и безоблачно+24°C61 %651 мм1.8 м/с2 %
    21:00Ясно и безоблачно+20°C82 %651 мм0.9 м/с2 %
  • 06декабря
    Вторник
    +16°
    +31°
    Практически безоблачно
    ВремяПогодаТемператураВлажностьДавлениеВетер, м/сВероятность осадков
    00:00Ясно и безоблачно+18°C88 %651 мм0.9 м/с2 %
    03:00Ясно и безоблачно+16°C89 %650 мм0.7 м/с2 %
    06:00Ясно и безоблачно+14°C89 %649 мм0.5 м/с2 %
    09:00Ясно и безоблачно+18°C64 %652 мм0.7 м/с2 %
    12:00Ясно и безоблачно+28°C38 %654 мм0.8 м/с5 %
    15:00Практически безоблачно+30°C37 %652 мм0.6 м/с16 %
    18:00Практически безоблачно+23°C77 %652 мм2.4 м/с13 %
    21:00Облачно с прояснениями+20°C96 %653 мм2.0 м/с4 %
Мы используем cookies
Соглашаюсь